Selfridge Angb Airport Mount Clemens US
ICAO: KMTC
IATA: MTC
Category: Medium
Scheduled Services: No

Elevation: 580 ft
TransAlt. 18000 ft.

Airport Communications:
927 ARW OPS:31.42
APP:119.6
ATIS:125.325
CLNC DEL:119
DEP:119.6
GND:128.3
USCG DETROIT AIR:38.18
WING COMD POST:148.525
PMSV/METRO:34.25
PTD:134.85
TWR:120.15

KMTC Zoom In..

Runways:

(A) RW 01 length 9000 ft width 150 ft
ILS 110.10 / hdg 8

(B) RW 19 length 9000 ft width 150 ft
ILS 110.10 / hdg 188

Location; KMTC
Day. 19 / Time. 19.55 Zulu
* Altimeter: 30.03
* Temperature: 27° c. 80.6°f.
* Wind from: 130° Speed 13 kn.
Dewpoint: 15° c.
Visibility: 10 Statute Miles.
Clouds: Few 5500 ft.
Clouds: Broken 25000 ft.

KMTC 191955Z 13013KT 10SM FEW055 BKN250 27/15 A3003 RMK AO2A SLP172 T02670148


Wind From 130°
Speed 13 kn.

 
 
jpsmedia.com for Web Design worldairports.se 2018   terms of use